This demonstration page uses our WeatherBlox Daily Observations layout. Learn more.

Hourly Observations for June 7, 2017

Temp ( °F °C ) Dew Point ( °F °C ) Humidity (%) Winds ( mph kmh ) Pressure ( in mb ) Visibility ( mi km ) Precip ( " mm )
12:54 am 00:54 Clear 69 20.6 50 10 51 51 SSW 6 9 30.06 1018 10 16.0934 0 0
1:54 am 01:54 Clear 66 18.9 50 10 56 56 S 3 6 30.05 1018 10 16.0934 0 0
2:54 am 02:54 Clear 66 18.9 51 10.6 59 59 S 3 6 30.06 1018 10 16.0934 0 0
3:54 am 03:54 Clear 65 18.3 50 10 59 59 WSW 3 6 30.06 1018 10 16.0934 0 0
4:54 am 04:54 Clear 63 17.2 50 10 63 63 S 3 6 30.08 1019 10 16.0934 0 0
5:54 am 05:54 Clear 59 15 51 10.6 75 75 Calm 30.08 1019 10 16.0934 0 0
6:54 am 06:54 Sunny 61 16.1 52 11.1 72 72 W 5 7 30.1 1019 10 16.0934 0 0
7:54 am 07:54 Sunny 67 19.4 52 11.1 59 59 SW 3 6 30.1 1019 10 16.0934 0 0
8:54 am 08:54 Sunny 72 22.2 54 12.2 53 53 S 8 13 30.1 1019 10 16.0934 0 0
9:54 am 09:54 Sunny 77 25 52 11.1 42 42 S 9 15 30.1 1019 10 16.0934 0 0
10:54 am 10:54 Sunny 80 26.7 51 10.6 37 37 S 8 13 30.09 1019 10 16.0934 0 0
11:54 am 11:54 Sunny 81 27.2 48 8.9 32 32 SSE 9 15 30.07 1018 10 16.0934 0 0
12:54 pm 12:54 Sunny 83 28.3 50 10 32 32 undefined N/A 30.06 1018 10 16.0934 0 0
1:54 pm 13:54 Sunny 84 28.9 48 8.9 29 29 E 8 13 30.06 1018 10 16.0934 0 0
2:54 pm 14:54 Sunny 85 29.4 48 8.9 28 28 SE 10 17 30.05 1018 10 16.0934 0 0
3:54 pm 15:54 Sunny 85 29.4 48 8.9 28 28 ESE 12 19 30.04 1017 10 16.0934 0 0
4:54 pm 16:54 Sunny 84 28.9 47 8.3 27 27 SSE 9 15 30.03 1017 10 16.0934 0 0
5:54 pm 17:54 Sunny 83 28.3 49 9.4 31 31 SSW 6 9 30.02 1017 10 16.0934 0 0
6:54 pm 18:54 Sunny 82 27.8 49 9.4 32 32 S 8 13 30 1016 10 16.0934 0 0
7:54 pm 19:54 Sunny 78 25.6 50 10 37 37 SSE 8 13 30.01 1016 10 16.0934 0 0
8:54 pm 20:54 Sunny 73 22.8 47 8.3 40 40 SSE 6 9 30 1016 10 16.0934 0 0
9:54 pm 21:54 Clear 71 21.7 47 8.3 42 42 S 6 9 30 1016 10 16.0934 0 0
10:54 pm 22:54 Clear 64 17.8 50 10 60 60 SSE 7 11 30.02 1017 10 16.0934 0 0
11:54 pm 23:54 Clear 64 17.8 49 9.4 58 58 SSW 5 7 30.02 1017 10 16.0934 0 0

Powered by AerisWeather